Time;durP1;ratioP1;P1;durP2;ratioP2;P2;SDS_P1;SDS_P2;PMS_P1;PMS_P2;Temp;Humidity;BMP_temperature;BMP_pressure;BME280_temperature;BME280_humidity;BME280_pressure;Samples;Min_cycle;Max_cycle;Signal;HPM_P1;HPM_P2
2021/09/09 00:00:37;;;;;;;13.80;10.33;;;18.70;99.90;;;;;;5016156;28;20521;-80
2021/09/09 00:03:05;;;;;;;12.27;9.90;;;18.70;99.90;;;;;;5015815;28;20423;-79
2021/09/09 00:05:32;;;;;;;15.67;10.60;;;18.70;99.90;;;;;;5015650;28;20472;-80
2021/09/09 00:07:59;;;;;;;14.83;9.40;;;18.70;99.90;;;;;;5015167;28;20965;-80
2021/09/09 00:10:26;;;;;;;11.90;10.10;;;18.80;99.90;;;;;;4997976;28;20761;-79
2021/09/09 00:12:53;;;;;;;12.80;10.07;;;18.90;99.90;;;;;;4996899;28;20440;-80
2021/09/09 00:15:19;;;;;;;14.10;9.63;;;18.80;99.90;;;;;;4995624;28;20492;-80
2021/09/09 00:17:46;;;;;;;11.83;9.90;;;18.70;99.90;;;;;;4995975;28;20461;-80
2021/09/09 00:20:15;;;;;;;15.80;10.87;;;18.70;99.90;;;;;;5012055;28;20952;-80
2021/09/09 00:22:42;;;;;;;12.00;9.53;;;18.80;99.90;;;;;;5015537;28;20458;-80
2021/09/09 00:25:10;;;;;;;15.07;9.80;;;18.80;99.90;;;;;;5021337;28;20461;-79
2021/09/09 00:27:37;;;;;;;13.50;10.37;;;18.70;99.90;;;;;;5018488;28;20794;-80
2021/09/09 00:30:04;;;;;;;15.70;10.00;;;18.70;99.90;;;;;;5005416;28;20438;-79
2021/09/09 00:32:31;;;;;;;12.70;10.93;;;18.70;99.90;;;;;;4995860;28;20460;-79
2021/09/09 00:34:58;;;;;;;11.60;9.70;;;18.70;99.90;;;;;;4995743;28;20542;-79
2021/09/09 00:37:26;;;;;;;15.17;10.27;;;18.70;99.90;;;;;;4995718;28;20469;-79
2021/09/09 00:39:53;;;;;;;16.00;9.90;;;18.70;99.90;;;;;;5008359;28;20453;-80
2021/09/09 00:42:20;;;;;;;18.53;10.80;;;18.70;99.90;;;;;;5014951;28;20418;-80
2021/09/09 00:44:47;;;;;;;11.80;10.20;;;18.60;99.90;;;;;;5015137;28;20896;-80
2021/09/09 00:47:14;;;;;;;13.90;10.07;;;18.60;99.90;;;;;;5015000;28;20492;-80
2021/09/09 00:49:42;;;;;;;13.37;9.60;;;18.60;99.90;;;;;;5003388;28;20802;-80
2021/09/09 00:52:11;;;;;;;15.00;11.30;;;18.70;99.90;;;;;;4995347;28;20461;-80
2021/09/09 00:54:39;;;;;;;13.60;10.20;;;18.70;99.90;;;;;;4995258;28;20429;-81
2021/09/09 00:57:06;;;;;;;16.70;10.70;;;18.80;99.90;;;;;;4995424;28;20953;-80
2021/09/09 00:59:34;;;;;;;11.33;9.37;;;18.70;99.90;;;;;;5005313;28;20823;-80
2021/09/09 01:02:02;;;;;;;13.97;10.30;;;18.70;99.90;;;;;;5014890;28;20519;-80
2021/09/09 01:04:29;;;;;;;11.53;10.20;;;18.70;99.90;;;;;;5014189;28;20533;-80
2021/09/09 01:06:57;;;;;;;13.33;9.80;;;18.60;99.90;;;;;;5014400;28;20463;-80
2021/09/09 01:09:24;;;;;;;18.00;9.80;;;18.70;99.90;;;;;;5006652;28;20606;-79
2021/09/09 01:11:52;;;;;;;12.70;10.10;;;18.70;99.90;;;;;;4994599;28;20954;-79
2021/09/09 01:14:20;;;;;;;11.63;10.27;;;18.50;99.90;;;;;;4998464;28;20454;-79
2021/09/09 01:16:48;;;;;;;13.30;10.07;;;18.40;99.90;;;;;;4998098;28;20478;-79
2021/09/09 01:19:16;;;;;;;11.30;9.97;;;18.40;99.90;;;;;;5002228;28;20457;-79
2021/09/09 01:21:43;;;;;;;11.80;9.30;;;18.40;99.90;;;;;;5013322;28;20966;-79
2021/09/09 01:24:12;;;;;;;13.20;10.30;;;18.40;99.90;;;;;;5015709;28;20471;-80
2021/09/09 01:26:49;;;;;;;14.20;10.10;;;18.30;99.90;;;;;;5014289;28;20581;-79
2021/09/09 01:29:17;;;;;;;11.60;9.53;;;18.40;99.90;;;;;;5007955;28;20454;-80
2021/09/09 01:31:44;;;;;;;13.57;10.60;;;18.40;99.90;;;;;;4995765;28;20466;-79
2021/09/09 01:34:12;;;;;;;12.30;10.20;;;18.30;99.90;;;;;;4999391;28;20450;-79
2021/09/09 01:36:39;;;;;;;11.13;9.83;;;18.40;99.90;;;;;;4996496;28;20477;-79
2021/09/09 01:39:06;;;;;;;12.03;10.03;;;18.40;99.90;;;;;;5001067;28;20448;-79
2021/09/09 01:41:34;;;;;;;11.77;9.77;;;18.40;99.90;;;;;;5014471;28;20465;-80
2021/09/09 01:44:01;;;;;;;12.03;9.87;;;18.40;99.90;;;;;;5015337;28;20450;-80
2021/09/09 01:46:27;;;;;;;14.50;10.30;;;18.50;99.90;;;;;;5014556;28;20477;-80
2021/09/09 01:48:55;;;;;;;15.53;10.20;;;18.40;99.90;;;;;;5011065;28;20456;-80
2021/09/09 01:51:22;;;;;;;14.93;9.73;;;18.40;99.90;;;;;;4996839;28;20847;-80
2021/09/09 01:53:49;;;;;;;12.57;10.40;;;18.40;99.90;;;;;;4995143;28;20537;-80
2021/09/09 01:56:18;;;;;;;10.57;9.33;;;18.40;99.90;;;;;;4996563;28;20535;-79
2021/09/09 01:58:46;;;;;;;15.53;9.97;;;18.40;99.90;;;;;;4999357;28;20791;-80
2021/09/09 02:01:13;;;;;;;14.50;10.13;;;18.40;99.90;;;;;;5016020;28;20489;-80
2021/09/09 02:03:40;;;;;;;11.93;9.80;;;18.30;99.90;;;;;;5020485;28;20461;-80
2021/09/09 02:06:07;;;;;;;11.00;9.70;;;18.20;99.90;;;;;;5014523;28;20471;-80
2021/09/09 02:08:34;;;;;;;12.33;9.90;;;18.20;99.90;;;;;;5014214;28;20584;-80
2021/09/09 02:11:02;;;;;;;14.47;10.53;;;18.20;99.90;;;;;;4997176;28;20431;-78
2021/09/09 02:13:28;;;;;;;15.90;11.07;;;18.10;99.90;;;;;;4999328;28;20874;-80
2021/09/09 02:15:57;;;;;;;11.40;9.27;;;18.20;99.90;;;;;;5001978;28;20496;-79
2021/09/09 02:18:24;;;;;;;11.43;9.23;;;18.30;99.90;;;;;;5000574;28;20489;-80
2021/09/09 02:20:51;;;;;;;15.47;10.10;;;18.20;99.90;;;;;;5013201;28;20427;-80
2021/09/09 02:23:18;;;;;;;14.93;10.53;;;18.20;99.90;;;;;;5020846;28;20449;-79
2021/09/09 02:25:45;;;;;;;15.93;10.50;;;18.10;99.90;;;;;;5014817;28;20495;-80
2021/09/09 02:28:11;;;;;;;14.57;11.63;;;18.00;99.90;;;;;;5021021;28;20528;-79
2021/09/09 02:30:38;;;;;;;13.50;10.87;;;18.00;99.90;;;;;;5005441;28;20438;-79
2021/09/09 02:33:07;;;;;;;13.10;10.07;;;18.00;99.90;;;;;;5000312;28;20435;-80
2021/09/09 02:35:33;;;;;;;11.90;9.30;;;18.00;99.90;;;;;;4996276;28;20453;-80
2021/09/09 02:38:01;;;;;;;11.47;9.57;;;18.00;99.90;;;;;;4993978;28;20480;-80
2021/09/09 02:40:28;;;;;;;15.00;9.97;;;18.00;99.90;;;;;;4993790;28;20432;-81
2021/09/09 02:42:55;;;;;;;12.50;10.17;;;18.00;99.90;;;;;;4993679;28;20468;-80
2021/09/09 02:45:23;;;;;;;12.30;10.90;;;17.90;99.90;;;;;;4999458;28;20456;-79
2021/09/09 02:47:49;;;;;;;17.43;9.37;;;17.90;99.90;;;;;;4995504;28;20501;-80
2021/09/09 02:50:18;;;;;;;12.53;10.43;;;17.90;99.90;;;;;;5007900;28;20437;-80
2021/09/09 02:52:45;;;;;;;12.80;10.67;;;17.90;99.90;;;;;;5017189;28;20439;-79
2021/09/09 02:55:12;;;;;;;11.63;10.13;;;18.00;99.90;;;;;;5021006;28;20448;-78
2021/09/09 02:57:39;;;;;;;13.03;9.80;;;18.00;99.90;;;;;;5014322;28;20428;-79
2021/09/09 03:00:08;;;;;;;13.60;10.70;;;17.90;99.90;;;;;;5000288;28;20448;-78
2021/09/09 03:02:35;;;;;;;14.43;10.23;;;18.00;99.90;;;;;;5000136;28;20451;-79
2021/09/09 03:05:02;;;;;;;14.17;10.73;;;18.00;99.90;;;;;;4996475;28;20540;-80
2021/09/09 03:07:30;;;;;;;11.97;10.17;;;18.00;99.90;;;;;;4997115;28;20531;-79
2021/09/09 03:09:57;;;;;;;14.17;10.60;;;18.00;99.90;;;;;;5013179;28;20426;-80
2021/09/09 03:12:23;;;;;;;13.33;10.27;;;18.00;99.90;;;;;;5012720;28;20520;-79
2021/09/09 03:14:50;;;;;;;12.13;10.23;;;18.00;99.90;;;;;;5014195;28;20570;-79
2021/09/09 03:17:17;;;;;;;11.10;9.20;;;18.00;99.90;;;;;;5014458;28;20915;-77
2021/09/09 03:19:44;;;;;;;12.83;10.67;;;18.10;99.90;;;;;;5014853;28;20517;-79
2021/09/09 03:22:11;;;;;;;10.97;9.67;;;18.10;99.90;;;;;;5018550;28;20452;-78
2021/09/09 03:24:39;;;;;;;11.13;9.93;;;18.10;99.90;;;;;;5020832;28;20482;-79
2021/09/09 05:41:18;;;;;;;12.63;10.67;;;18.80;99.90;;;;;;4747307;30;20540;-86
2021/09/09 05:44:54;;;;;;;;;;;;;;;;;;;;;
2021/09/09 07:31:39;;;;;;;14.00;10.37;;;21.70;99.90;;;;;;4842190;29;20434;-89
2021/09/09 07:34:08;;;;;;;10.13;9.10;;;21.70;99.90;;;;;;4865081;29;20490;-80
2021/09/09 07:36:34;;;;;;;12.23;9.90;;;21.80;99.90;;;;;;4927718;28;20455;-79
2021/09/09 07:39:01;;;;;;;11.73;10.53;;;21.90;99.90;;;;;;4975232;28;20483;-81
2021/09/09 07:41:28;;;;;;;11.27;10.07;;;22.00;99.90;;;;;;4976460;28;20490;-80
2021/09/09 07:43:55;;;;;;;12.27;10.07;;;22.10;99.90;;;;;;4977222;28;20822;-79
2021/09/09 07:46:22;;;;;;;13.37;11.00;;;22.20;99.90;;;;;;4977158;28;20520;-79
2021/09/09 07:48:50;;;;;;;14.17;10.27;;;22.30;99.90;;;;;;4975894;28;20491;-80
2021/09/09 07:51:19;;;;;;;12.80;11.13;;;22.30;99.90;;;;;;4975844;28;20498;-80
2021/09/09 07:53:46;;;;;;;10.40;9.40;;;22.50;99.90;;;;;;4980045;28;20452;-81
2021/09/09 07:56:14;;;;;;;12.90;10.20;;;22.60;99.90;;;;;;4985519;28;20492;-81
2021/09/09 07:58:43;;;;;;;12.47;9.47;;;22.60;99.90;;;;;;4979280;28;20484;-81
2021/09/09 08:01:10;;;;;;;11.70;9.57;;;22.80;99.90;;;;;;4981417;28;20457;-79
2021/09/09 08:03:36;;;;;;;8.90;8.00;;;23.00;99.90;;;;;;4988328;28;20512;-84
2021/09/09 08:06:03;;;;;;;9.60;8.37;;;23.20;99.90;;;;;;4982612;28;20484;-82
2021/09/09 08:08:31;;;;;;;10.10;9.10;;;23.30;99.90;;;;;;4977363;28;21021;-79
2021/09/09 08:10:58;;;;;;;12.47;10.07;;;23.40;99.90;;;;;;4975630;28;20462;-80
2021/09/09 08:13:25;;;;;;;11.00;9.70;;;23.50;99.90;;;;;;4975249;28;20540;-82
2021/09/09 08:15:52;;;;;;;11.43;10.23;;;23.70;99.90;;;;;;4979702;28;20480;-82
2021/09/09 08:18:18;;;;;;;10.30;9.30;;;23.70;99.90;;;;;;4972289;28;20468;-82
2021/09/09 08:20:45;;;;;;;21.47;10.40;;;23.90;99.90;;;;;;4977035;28;20491;-81
2021/09/09 08:23:12;;;;;;;9.53;8.03;;;23.90;99.90;;;;;;4979475;28;20970;-81
2021/09/09 08:25:40;;;;;;;11.60;9.60;;;24.10;99.90;;;;;;4979114;28;20448;-81
2021/09/09 08:28:07;;;;;;;10.57;8.97;;;24.20;99.90;;;;;;4980132;28;20502;-82
2021/09/09 08:30:34;;;;;;;11.70;8.97;;;24.30;99.90;;;;;;4987646;28;20907;-80
2021/09/09 08:33:01;;;;;;;11.30;9.43;;;24.20;99.90;;;;;;5003962;28;20772;-81
2021/09/09 08:35:28;;;;;;;10.63;8.83;;;24.20;99.90;;;;;;4979691;28;20460;-81
2021/09/09 08:37:54;;;;;;;11.40;9.33;;;24.20;99.90;;;;;;4979813;28;20477;-81
2021/09/09 08:40:22;;;;;;;11.10;8.97;;;24.20;99.90;;;;;;4979867;28;20463;-82
2021/09/09 08:42:52;;;;;;;12.87;8.23;;;24.20;99.90;;;;;;4984364;28;20531;-81
2021/09/09 08:45:19;;;;;;;12.53;9.30;;;24.10;99.90;;;;;;4987433;28;20519;-80
2021/09/09 08:47:48;;;;;;;10.50;9.40;;;24.20;99.90;;;;;;4990828;28;20504;-82
2021/09/09 08:50:15;;;;;;;10.73;9.23;;;24.20;99.90;;;;;;4987760;28;20450;-81
2021/09/09 08:52:43;;;;;;;10.30;9.20;;;24.20;99.90;;;;;;4983660;28;20951;-81
2021/09/09 08:55:10;;;;;;;11.53;9.10;;;24.20;99.90;;;;;;4984256;28;20475;-80
2021/09/09 08:57:37;;;;;;;12.70;9.00;;;24.20;99.90;;;;;;4969011;28;20467;-81
2021/09/09 09:00:06;;;;;;;10.27;9.17;;;24.20;99.90;;;;;;4983388;28;20520;-81
2021/09/09 09:02:47;;;;;;;10.17;8.87;;;24.30;99.90;;;;;;4983491;28;20964;-81
2021/09/09 09:05:14;;;;;;;8.60;7.80;;;24.40;99.90;;;;;;5002909;28;21051;-81
2021/09/09 09:07:41;;;;;;;10.30;9.20;;;24.50;99.90;;;;;;4981325;28;20518;-80
2021/09/09 09:10:09;;;;;;;11.37;9.80;;;24.50;99.90;;;;;;4982827;28;20448;-80
2021/09/09 09:12:41;;;;;;;13.93;8.80;;;24.50;99.90;;;;;;4980853;28;20551;-81
2021/09/09 09:15:15;;;;;;;10.97;9.47;;;24.60;99.90;;;;;;4980818;28;20600;-82
2021/09/09 09:18:04;;;;;;;9.60;8.70;;;24.60;99.90;;;;;;4981658;28;20543;-82
2021/09/09 09:20:43;;;;;;;10.40;9.30;;;24.70;99.90;;;;;;4983473;28;20440;-80
2021/09/09 09:23:13;;;;;;;9.60;8.30;;;24.80;99.90;;;;;;4981975;28;20547;-81
2021/09/09 09:25:48;;;;;;;13.00;8.03;;;24.80;99.90;;;;;;4977957;28;20527;-80
2021/09/09 09:28:15;;;;;;;13.87;8.53;;;25.00;99.90;;;;;;5007783;22;20524;-78
2021/09/09 09:31:05;;;;;;;10.57;8.80;;;24.90;99.90;;;;;;5012395;28;20534;-78
2021/09/09 09:33:33;;;;;;;10.50;8.30;;;25.00;99.90;;;;;;4996832;28;20456;-78
2021/09/09 09:36:13;;;;;;;10.97;9.03;;;25.00;99.90;;;;;;4999969;28;20451;-77
2021/09/09 09:38:40;;;;;;;13.67;8.90;;;25.10;99.90;;;;;;4993964;28;20455;-78
2021/09/09 09:41:06;;;;;;;9.27;8.27;;;25.20;99.90;;;;;;5008952;28;20462;-78
2021/09/09 09:43:34;;;;;;;11.10;8.17;;;25.30;99.90;;;;;;5014094;28;20455;-78
2021/09/09 09:46:02;;;;;;;9.90;8.60;;;25.50;99.90;;;;;;4998477;28;20494;-78
2021/09/09 09:48:33;;;;;;;11.70;8.10;;;25.50;99.90;;;;;;4994022;28;20496;-78
2021/09/09 09:51:01;;;;;;;12.10;9.07;;;25.50;99.90;;;;;;4993464;28;20462;-79
2021/09/09 09:53:29;;;;;;;10.70;8.60;;;25.60;99.90;;;;;;4995043;28;20461;-78
2021/09/09 09:55:56;;;;;;;12.43;8.80;;;25.70;99.90;;;;;;4994638;28;20464;-78
2021/09/09 09:58:23;;;;;;;9.60;8.50;;;25.80;99.90;;;;;;4996558;28;20474;-77
2021/09/09 10:00:51;;;;;;;12.07;9.17;;;25.80;99.90;;;;;;5013995;28;20484;-77
2021/09/09 10:03:21;;;;;;;10.23;9.17;;;25.80;99.90;;;;;;5012252;28;20502;-77
2021/09/09 10:05:53;;;;;;;12.30;9.00;;;25.90;99.90;;;;;;5011744;28;20443;-77
2021/09/09 10:08:20;;;;;;;10.33;8.30;;;26.00;99.90;;;;;;5011674;28;20523;-77
2021/09/09 10:10:48;;;;;;;11.67;9.40;;;26.10;99.50;;;;;;5011744;28;20452;-77
2021/09/09 10:13:17;;;;;;;7.80;7.00;;;26.10;99.30;;;;;;4993394;28;20453;-78
2021/09/09 10:15:46;;;;;;;11.53;8.83;;;26.10;98.70;;;;;;4992413;28;20515;-77
2021/09/09 10:18:15;;;;;;;11.53;7.80;;;26.10;98.50;;;;;;4992062;28;20496;-78
2021/09/09 10:20:44;;;;;;;8.60;7.43;;;26.20;98.60;;;;;;4991791;28;20489;-78
2021/09/09 10:23:14;;;;;;;8.20;7.03;;;26.30;97.90;;;;;;4993580;28;20516;-79
2021/09/09 10:25:44;;;;;;;9.07;7.70;;;26.30;97.50;;;;;;4998526;28;20445;-77
2021/09/09 10:28:45;;;;;;;9.60;7.73;;;26.30;97.60;;;;;;5013866;28;20493;-77
2021/09/09 10:31:13;;;;;;;9.67;7.87;;;26.40;97.10;;;;;;5015776;28;20470;-78
2021/09/09 10:33:44;;;;;;;10.20;7.57;;;26.60;97.20;;;;;;5015251;28;20499;-77
2021/09/09 10:36:37;;;;;;;9.03;7.40;;;26.70;97.10;;;;;;5013043;28;20442;-77
2021/09/09 10:39:06;;;;;;;10.40;7.83;;;26.90;96.80;;;;;;5012178;28;20909;-79
2021/09/09 10:41:33;;;;;;;11.20;7.57;;;27.00;96.90;;;;;;5011874;28;20543;-77
2021/09/09 10:44:01;;;;;;;10.07;8.60;;;27.10;97.00;;;;;;4997070;28;20451;-77
2021/09/09 10:46:32;;;;;;;7.87;6.83;;;27.20;96.80;;;;;;4992403;28;20459;-77
2021/09/09 10:49:18;;;;;;;9.70;7.80;;;27.40;96.00;;;;;;4991441;28;20497;-77
2021/09/09 10:52:04;;;;;;;9.60;7.33;;;27.30;95.90;;;;;;4993213;28;20463;-78
2021/09/09 10:54:34;;;;;;;14.07;7.50;;;27.30;96.00;;;;;;4991687;28;20599;-77
2021/09/09 10:57:14;;;;;;;10.53;8.17;;;27.30;95.80;;;;;;4993388;28;20436;-78
2021/09/09 10:59:48;;;;;;;8.00;6.80;;;27.20;95.60;;;;;;5005914;28;20496;-78
2021/09/09 11:02:15;;;;;;;7.07;6.37;;;27.10;95.50;;;;;;5012757;28;20449;-78
2021/09/09 11:04:44;;;;;;;8.20;7.27;;;27.00;95.50;;;;;;5012848;28;20487;-78
2021/09/09 11:07:25;;;;;;;8.67;6.70;;;27.00;95.40;;;;;;5012515;28;20452;-78
2021/09/09 11:10:01;;;;;;;8.57;6.80;;;26.90;95.50;;;;;;5019248;28;20503;-78
2021/09/09 11:12:34;;;;;;;9.33;6.90;;;26.90;95.90;;;;;;5021148;28;20535;-77
2021/09/09 11:15:06;;;;;;;8.63;7.50;;;26.90;96.10;;;;;;4999717;28;20782;-80
2021/09/09 11:17:33;;;;;;;10.20;7.20;;;26.90;96.40;;;;;;4994162;28;20544;-78
2021/09/09 11:20:01;;;;;;;8.53;6.27;;;26.90;96.20;;;;;;4994921;28;20474;-78
2021/09/09 11:22:28;;;;;;;7.97;6.57;;;26.90;96.20;;;;;;4998000;28;20475;-78
2021/09/09 11:24:57;;;;;;;8.50;7.20;;;27.00;96.20;;;;;;4996362;28;20458;-78
2021/09/09 11:27:29;;;;;;;9.40;7.50;;;26.90;96.10;;;;;;4993276;28;20507;-78
2021/09/09 11:29:57;;;;;;;11.70;7.10;;;26.90;96.40;;;;;;4992781;28;20506;-78
2021/09/09 11:32:24;;;;;;;7.90;7.10;;;26.90;96.40;;;;;;4992956;28;20439;-78
2021/09/09 11:34:51;;;;;;;8.73;7.60;;;27.00;96.50;;;;;;5002361;28;20464;-78
2021/09/09 11:37:18;;;;;;;8.60;7.40;;;26.90;96.50;;;;;;5013059;28;20456;-78
2021/09/09 11:39:44;;;;;;;11.40;7.13;;;27.00;96.70;;;;;;5012358;28;20470;-78
2021/09/09 11:42:11;;;;;;;9.30;7.07;;;27.10;96.00;;;;;;5012553;28;20474;-78
2021/09/09 11:44:41;;;;;;;12.07;7.00;;;27.10;96.10;;;;;;5020467;28;20456;-78
2021/09/09 11:47:15;;;;;;;8.00;6.60;;;27.10;95.70;;;;;;5017855;28;20544;-77
2021/09/09 11:49:42;;;;;;;7.77;6.17;;;27.10;95.50;;;;;;5011511;28;20656;-77
2021/09/09 11:52:11;;;;;;;8.17;6.80;;;27.10;95.20;;;;;;5010564;28;20453;-78
2021/09/09 11:54:39;;;;;;;7.50;6.70;;;27.30;95.00;;;;;;5014623;28;20481;-78
2021/09/09 11:57:08;;;;;;;8.07;6.83;;;27.30;94.90;;;;;;5012179;28;20466;-78
2021/09/09 11:59:36;;;;;;;9.40;5.77;;;27.30;94.60;;;;;;5011587;28;20474;-78
2021/09/09 12:02:07;;;;;;;8.23;6.40;;;27.30;94.50;;;;;;5011902;28;20546;-78
2021/09/09 12:04:38;;;;;;;9.80;6.10;;;27.30;94.30;;;;;;5011957;28;20763;-78
2021/09/09 12:07:06;;;;;;;7.50;6.17;;;27.40;94.30;;;;;;5010333;28;20879;-78
2021/09/09 12:09:37;;;;;;;8.17;6.53;;;27.40;94.30;;;;;;5009085;28;20518;-78
2021/09/09 12:12:07;;;;;;;7.60;6.50;;;27.40;94.20;;;;;;5010800;28;20515;-78
2021/09/09 12:14:34;;;;;;;9.60;7.90;;;27.30;94.20;;;;;;5018591;28;20478;-77
2021/09/09 12:17:11;;;;;;;7.93;6.77;;;27.30;94.20;;;;;;5020858;28;20460;-77
2021/09/09 12:19:54;;;;;;;8.70;7.07;;;27.30;94.20;;;;;;5019182;28;20476;-77
2021/09/09 12:22:21;;;;;;;9.93;6.33;;;27.30;93.50;;;;;;5018268;28;20438;-77
2021/09/09 12:24:48;;;;;;;8.43;6.70;;;27.40;93.60;;;;;;5011587;28;20509;-78
2021/09/09 12:27:18;;;;;;;8.93;6.63;;;27.50;93.40;;;;;;4991847;28;20772;-78
2021/09/09 12:29:47;;;;;;;10.20;7.40;;;27.50;92.90;;;;;;4991671;28;20494;-77
2021/09/09 12:32:29;;;;;;;7.70;6.20;;;27.60;93.00;;;;;;4994615;28;20455;-79
2021/09/09 12:35:17;;;;;;;9.83;7.80;;;27.60;92.80;;;;;;4992065;28;20501;-79
2021/09/09 12:37:44;;;;;;;8.20;7.03;;;27.60;92.40;;;;;;4996794;28;20526;-77
2021/09/09 12:40:12;;;;;;;9.30;7.90;;;27.60;92.90;;;;;;4994702;28;20424;-79
2021/09/09 12:42:39;;;;;;;10.10;7.10;;;27.60;92.40;;;;;;5005902;28;20977;-80
2021/09/09 12:45:08;;;;;;;8.33;7.30;;;27.70;92.50;;;;;;5013168;28;20913;-80
2021/09/09 12:47:37;;;;;;;9.43;7.40;;;27.70;91.80;;;;;;5013143;28;20447;-79
2021/09/09 12:50:31;;;;;;;10.53;7.20;;;27.70;91.80;;;;;;5010299;28;20500;-78
2021/09/09 12:52:58;;;;;;;7.37;6.63;;;27.80;91.80;;;;;;5012655;28;20957;-79
2021/09/09 12:55:25;;;;;;;9.83;7.03;;;27.80;91.90;;;;;;5009961;28;21037;-78
2021/09/09 12:57:52;;;;;;;9.20;7.57;;;27.90;91.90;;;;;;5002858;28;20494;-79
2021/09/09 13:00:19;;;;;;;10.73;7.40;;;28.00;91.30;;;;;;4992193;28;20543;-78
2021/09/09 13:02:47;;;;;;;10.23;8.07;;;28.10;90.80;;;;;;4991433;28;20459;-78
2021/09/09 13:05:14;;;;;;;9.83;7.40;;;28.20;90.50;;;;;;4990274;28;20447;-79
2021/09/09 13:07:40;;;;;;;9.67;6.80;;;28.20;90.20;;;;;;4991632;28;20455;-79
2021/09/09 13:10:08;;;;;;;9.07;7.17;;;28.20;89.90;;;;;;4993730;28;20546;-78
2021/09/09 13:12:35;;;;;;;8.60;6.37;;;28.20;89.30;;;;;;5002852;28;20486;-79
2021/09/09 13:15:02;;;;;;;7.83;6.67;;;28.20;88.80;;;;;;5013271;28;20883;-78
2021/09/09 13:17:28;;;;;;;8.87;7.57;;;28.20;89.00;;;;;;4994483;28;20451;-79
2021/09/09 13:19:57;;;;;;;8.60;7.70;;;28.30;88.40;;;;;;4993619;28;20511;-79
2021/09/09 13:22:24;;;;;;;8.93;7.00;;;28.30;88.10;;;;;;4994386;28;20974;-79
2021/09/09 13:24:51;;;;;;;8.27;6.80;;;28.40;87.90;;;;;;4993974;28;20457;-79
2021/09/09 13:27:18;;;;;;;8.20;7.17;;;28.60;87.30;;;;;;5006326;28;20512;-79
2021/09/09 13:29:46;;;;;;;8.87;7.30;;;28.70;86.00;;;;;;5013332;28;20520;-79
2021/09/09 13:32:13;;;;;;;12.57;6.83;;;28.90;85.30;;;;;;5013504;28;20459;-78
2021/09/09 13:34:40;;;;;;;8.30;7.20;;;28.80;85.50;;;;;;5014928;28;20538;-81
2021/09/09 13:37:08;;;;;;;8.27;7.00;;;28.70;86.20;;;;;;5015425;28;20982;-79
2021/09/09 13:39:35;;;;;;;12.60;8.10;;;28.70;86.20;;;;;;5014266;28;20525;-79
2021/09/09 13:42:02;;;;;;;9.07;7.10;;;28.60;86.00;;;;;;4998918;28;20772;-79
2021/09/09 13:44:28;;;;;;;8.03;7.00;;;28.50;86.60;;;;;;4995055;28;20459;-79
2021/09/09 13:46:55;;;;;;;10.47;6.93;;;28.50;86.60;;;;;;4994269;28;20551;-80
2021/09/09 13:49:22;;;;;;;8.33;7.10;;;28.60;86.70;;;;;;4994791;28;20487;-79
2021/09/09 13:51:49;;;;;;;9.33;6.60;;;28.50;86.10;;;;;;4994254;28;20451;-79
2021/09/09 13:54:17;;;;;;;7.77;6.97;;;28.60;85.50;;;;;;4994248;28;20787;-79
2021/09/09 13:56:44;;;;;;;9.27;6.77;;;28.50;85.30;;;;;;5010678;28;20457;-79
2021/09/09 13:59:11;;;;;;;7.73;6.60;;;28.60;85.40;;;;;;5014023;28;20470;-79
2021/09/09 14:01:38;;;;;;;8.47;6.70;;;28.80;85.60;;;;;;5014402;28;20458;-79
2021/09/09 14:04:05;;;;;;;10.47;6.90;;;28.90;85.20;;;;;;5014535;28;20457;-80
2021/09/09 14:06:35;;;;;;;8.60;5.97;;;29.00;84.80;;;;;;5014748;28;20455;-79
2021/09/09 14:09:01;;;;;;;8.20;6.47;;;29.00;84.50;;;;;;5014030;28;20482;-80
2021/09/09 14:11:31;;;;;;;7.60;6.43;;;28.90;84.90;;;;;;5012731;28;20547;-79
2021/09/09 14:13:58;;;;;;;10.53;6.60;;;28.80;85.20;;;;;;5014291;28;20486;-80
2021/09/09 14:16:25;;;;;;;9.00;6.60;;;28.70;85.10;;;;;;5013401;28;20974;-80
2021/09/09 14:18:52;;;;;;;8.50;6.87;;;28.70;85.30;;;;;;5013139;28;20467;-79
2021/09/09 14:21:18;;;;;;;7.40;6.00;;;28.60;84.50;;;;;;5015096;28;20465;-80
2021/09/09 14:23:45;;;;;;;10.80;6.00;;;28.70;84.40;;;;;;5011894;28;20537;-79
2021/09/09 14:26:12;;;;;;;7.80;7.00;;;28.60;85.30;;;;;;4997391;28;20456;-78
2021/09/09 14:28:40;;;;;;;8.33;6.47;;;28.40;87.50;;;;;;4995354;28;21011;-79
2021/09/09 14:31:07;;;;;;;8.33;6.20;;;28.20;90.90;;;;;;4993957;28;20511;-79
2021/09/09 14:33:34;;;;;;;8.17;6.73;;;28.30;88.80;;;;;;4994581;28;20455;-79
2021/09/09 14:36:00;;;;;;;8.00;6.30;;;28.40;84.90;;;;;;4995486;28;20455;-80
2021/09/09 14:38:27;;;;;;;8.37;5.77;;;28.40;83.90;;;;;;4998944;28;20474;-80
2021/09/09 14:40:54;;;;;;;10.27;6.23;;;28.40;82.80;;;;;;5013479;28;20864;-80
2021/09/09 14:43:21;;;;;;;9.60;6.27;;;28.50;82.10;;;;;;5013848;28;20477;-80
2021/09/09 14:45:49;;;;;;;8.97;5.80;;;28.50;82.10;;;;;;5014141;28;20446;-79
2021/09/09 14:48:16;;;;;;;8.47;7.03;;;28.70;81.80;;;;;;5015990;28;20494;-80
2021/09/09 14:50:43;;;;;;;7.43;6.57;;;28.80;81.20;;;;;;5013681;28;20492;-79
2021/09/09 14:53:10;;;;;;;9.07;6.23;;;28.90;80.70;;;;;;5007227;28;20451;-79
2021/09/09 14:55:37;;;;;;;8.70;5.80;;;28.90;80.60;;;;;;4993851;28;20550;-81
2021/09/09 14:58:04;;;;;;;11.70;6.20;;;28.80;80.80;;;;;;4993489;28;20529;-79
2021/09/09 15:00:30;;;;;;;6.93;6.17;;;28.90;80.70;;;;;;4994187;28;20448;-80
2021/09/09 15:02:59;;;;;;;6.60;5.67;;;28.50;82.30;;;;;;4996434;28;20454;-79
2021/09/09 15:05:26;;;;;;;8.07;6.37;;;28.40;82.30;;;;;;4997044;28;20466;-79
2021/09/09 15:07:53;;;;;;;9.30;6.37;;;28.40;82.40;;;;;;5020755;28;20554;-79
2021/09/09 15:10:20;;;;;;;6.30;5.70;;;28.50;81.40;;;;;;5015259;28;20498;-82
2021/09/09 15:12:47;;;;;;;9.00;6.70;;;28.70;81.30;;;;;;5014651;28;20536;-80
2021/09/09 15:15:16;;;;;;;8.80;6.87;;;28.90;80.50;;;;;;5016232;28;20569;-80
2021/09/09 15:17:43;;;;;;;8.73;6.10;;;29.10;79.70;;;;;;5019140;28;20478;-79
2021/09/09 15:20:12;;;;;;;7.83;6.27;;;29.10;78.80;;;;;;5024012;28;20445;-80
2021/09/09 15:22:39;;;;;;;7.67;6.30;;;29.10;77.60;;;;;;5010620;28;20475;-80
2021/09/09 15:25:09;;;;;;;8.43;6.63;;;28.90;77.50;;;;;;5091473;28;20470;-80
2021/09/09 15:27:37;;;;;;;9.27;7.00;;;28.80;75.50;;;;;;5124535;28;20478;-80
2021/09/09 15:30:04;;;;;;;10.10;6.90;;;28.70;75.00;;;;;;5109507;22;20563;-85
2021/09/09 15:32:32;;;;;;;7.27;6.43;;;28.70;75.30;;;;;;5088571;28;20684;-87
2021/09/09 15:34:59;;;;;;;8.53;7.00;;;28.80;75.40;;;;;;5087739;28;20443;-86
2021/09/09 15:37:27;;;;;;;10.97;6.20;;;28.90;75.30;;;;;;5094900;28;20452;-86
2021/09/09 15:39:54;;;;;;;6.97;5.83;;;29.00;75.50;;;;;;5088610;28;20502;-87
2021/09/09 15:42:22;;;;;;;8.20;6.27;;;29.00;75.60;;;;;;5082848;28;20470;-85
2021/09/09 15:44:50;;;;;;;8.00;7.10;;;29.00;75.50;;;;;;5087960;28;20451;-88
2021/09/09 15:47:17;;;;;;;10.07;7.40;;;28.90;75.80;;;;;;5086372;28;20509;-85
2021/09/09 15:49:44;;;;;;;7.63;6.40;;;28.80;76.50;;;;;;5084543;28;20574;-87
2021/09/09 15:52:11;;;;;;;8.10;7.13;;;28.50;77.30;;;;;;5083565;28;20457;-87
2021/09/09 15:54:39;;;;;;;9.97;7.10;;;28.30;77.30;;;;;;5087445;28;20487;-87
2021/09/09 15:57:06;;;;;;;11.10;7.37;;;28.10;78.00;;;;;;5091488;28;20491;-87
2021/09/09 15:59:34;;;;;;;8.97;6.63;;;27.70;78.80;;;;;;5091586;28;20473;-83
2021/09/09 16:02:00;;;;;;;8.57;6.20;;;27.60;79.40;;;;;;5087453;28;20451;-79
2021/09/09 16:04:27;;;;;;;8.50;6.27;;;27.50;80.50;;;;;;5084876;28;20535;-80
2021/09/09 16:06:54;;;;;;;8.30;7.10;;;27.40;80.80;;;;;;5082070;28;20502;-80
2021/09/09 16:09:21;;;;;;;8.73;6.30;;;27.30;81.40;;;;;;5084456;28;20500;-79
2021/09/09 16:11:50;;;;;;;9.07;6.90;;;27.20;82.90;;;;;;5078735;28;20561;-79
2021/09/09 16:14:17;;;;;;;7.93;7.13;;;27.10;83.10;;;;;;5072158;28;20906;-80
2021/09/09 16:16:44;;;;;;;7.87;6.40;;;26.90;83.50;;;;;;5077989;28;20822;-81
2021/09/09 16:19:12;;;;;;;7.90;6.67;;;26.90;84.00;;;;;;5077997;28;20479;-80
2021/09/09 16:21:39;;;;;;;10.20;6.87;;;26.80;84.10;;;;;;5079051;28;20460;-79
2021/09/09 16:24:06;;;;;;;9.20;7.70;;;26.90;84.60;;;;;;5086895;28;20460;-79
2021/09/09 16:26:33;;;;;;;9.27;7.00;;;26.80;84.90;;;;;;5082214;28;20531;-81
2021/09/09 16:29:01;;;;;;;7.53;6.83;;;26.70;85.20;;;;;;5077360;28;20474;-80
2021/09/09 16:31:28;;;;;;;8.47;6.83;;;26.70;85.30;;;;;;5076571;28;20486;-81
2021/09/09 16:33:55;;;;;;;9.57;7.00;;;26.70;85.20;;;;;;5078979;28;20472;-78
2021/09/09 16:36:22;;;;;;;11.13;7.50;;;26.60;85.30;;;;;;5083220;28;20461;-79
2021/09/09 16:38:51;;;;;;;8.50;6.90;;;26.60;85.80;;;;;;5088650;28;20468;-79
2021/09/09 16:41:18;;;;;;;7.33;6.53;;;26.60;86.60;;;;;;5089082;28;20459;-77
2021/09/09 16:43:45;;;;;;;10.83;7.50;;;26.60;86.00;;;;;;5093576;28;20517;-80
2021/09/09 16:46:13;;;;;;;12.77;9.37;;;26.60;87.20;;;;;;5089496;28;20504;-81